Terminal Aerodrome Forecast
Issued by NWS

Home | Current Version | Previous Version | Text Only | Print | Product List | Glossary On
Versions: 1 2 3 4 5 6 7 8 9 10 11 12 13 14 15 16 17 18 19 20
000
FTUS43 KPAH 261915 AAA
TAFCGI
TAF AMD
KCGI 261915Z 2619/2718 19014G21KT P6SM SCT025 BKN100
      TEMPO 2619/2621 3SM TSRA BR BKN025CB
     FM262100 18015G25KT P6SM VCTS OVC025CB
      TEMPO 2622/2701 3SM TSRA OVC015CB
     FM270400 27011KT P6SM SCT020 BKN030=

USA.gov is the U.S. government's official web portal to all federal, state and local government web resources and services.